TNO1108 SVMI-TFFR
Flight info
| Callsign | TNO1108 |
|---|---|
| Flight time | 1h 14m |
| Altitude | 35000 |
| Route | SOSKA2 OPUTU DCT OPMEB UA550 ITEGO DCT PELMA DCT TULEX TULEX1A |
| Aircraft | A321/M-SDE3FGHIRWY/LB1 |
Departure
| Time | 2026-04-26 15:29 |
|---|---|
| Airport | Maiquetía Simón Bolívar International Airport (SVMI) |
Arrival
| Time | 2026-04-26 16:43 |
|---|---|
| Airport | Maryse Condé International Airport (TFFR) |
| Time | Latitude | Longitude | Altitude | Speed | Heading |
|---|---|---|---|---|---|
| 2026-04-26 14:36 | 10.59827 | -67.00518 | 229 ft | 0 kts | 178° |
| 2026-04-26 15:18 | 10.59830 | -67.00519 | 229 ft | 3 kts | 178° |
| 2026-04-26 15:18 | 10.59857 | -67.00519 | 229 ft | 4 kts | 178° |
| 2026-04-26 15:19 | 10.59867 | -67.00520 | 229 ft | 0 kts | 178° |
| 2026-04-26 15:20 | 10.59876 | -67.00521 | 229 ft | 3 kts | 168° |
| 2026-04-26 15:20 | 10.59893 | -67.00523 | 229 ft | 3 kts | 174° |
| 2026-04-26 15:20 | 10.59911 | -67.00527 | 230 ft | 3 kts | 146° |
| 2026-04-26 15:21 | 10.59922 | -67.00540 | 230 ft | 2 kts | 93° |
| 2026-04-26 15:21 | 10.59923 | -67.00550 | 229 ft | 0 kts | 88° |
| 2026-04-26 15:21 | 10.59923 | -67.00548 | 229 ft | 0 kts | 88° |
| 2026-04-26 15:23 | 10.59922 | -67.00535 | 229 ft | 6 kts | 93° |
| 2026-04-26 15:23 | 10.59920 | -67.00476 | 228 ft | 9 kts | 89° |
| 2026-04-26 15:23 | 10.59922 | -67.00402 | 227 ft | 11 kts | 88° |
| 2026-04-26 15:24 | 10.59924 | -67.00324 | 225 ft | 12 kts | 89° |
| 2026-04-26 15:24 | 10.59914 | -67.00242 | 224 ft | 12 kts | 107° |
| 2026-04-26 15:24 | 10.59907 | -67.00151 | 223 ft | 13 kts | 87° |
| 2026-04-26 15:24 | 10.59911 | -67.00053 | 221 ft | 14 kts | 88° |
| 2026-04-26 15:25 | 10.59913 | -66.99954 | 220 ft | 14 kts | 86° |
| 2026-04-26 15:25 | 10.59955 | -66.99916 | 223 ft | 15 kts | 11° |
| 2026-04-26 15:25 | 10.60117 | -66.99907 | 222 ft | 19 kts | 29° |
| 2026-04-26 15:25 | 10.60136 | -66.99813 | 214 ft | 16 kts | 88° |
| 2026-04-26 15:26 | 10.60116 | -66.99682 | 211 ft | 16 kts | 146° |
| 2026-04-26 15:26 | 10.60043 | -66.99674 | 216 ft | 8 kts | 173° |
| 2026-04-26 15:26 | 10.59968 | -66.99664 | 220 ft | 10 kts | 176° |
| 2026-04-26 15:26 | 10.59905 | -66.99652 | 218 ft | 9 kts | 139° |
| 2026-04-26 15:27 | 10.59906 | -66.99615 | 216 ft | 6 kts | 63° |
| 2026-04-26 15:27 | 10.59909 | -66.99604 | 215 ft | 0 kts | 78° |
| 2026-04-26 15:28 | 10.59911 | -66.99598 | 215 ft | 10 kts | 75° |
| 2026-04-26 15:28 | 10.59999 | -66.99249 | 202 ft | 88 kts | 76° |
| 2026-04-26 15:28 | 10.60199 | -66.98438 | 175 ft | 145 kts | 76° |
| 2026-04-26 15:28 | 10.60474 | -66.97336 | 473 ft | 162 kts | 76° |
| 2026-04-26 15:29 | 10.60733 | -66.96224 | 1139 ft | 162 kts | 78° |
| 2026-04-26 15:29 | 10.60951 | -66.95094 | 1755 ft | 163 kts | 79° |
| 2026-04-26 15:29 | 10.61405 | -66.92647 | 2282 ft | 196 kts | 80° |
| 2026-04-26 15:30 | 10.61962 | -66.89656 | 2535 ft | 237 kts | 81° |
| 2026-04-26 15:30 | 10.62265 | -66.87928 | 2826 ft | 256 kts | 81° |
| 2026-04-26 15:30 | 10.62575 | -66.86128 | 3461 ft | 261 kts | 82° |
| 2026-04-26 15:31 | 10.62889 | -66.84307 | 4173 ft | 263 kts | 82° |
| 2026-04-26 15:31 | 10.63420 | -66.81237 | 5341 ft | 267 kts | 82° |
| 2026-04-26 15:31 | 10.63742 | -66.79375 | 6021 ft | 269 kts | 82° |
| 2026-04-26 15:32 | 10.64289 | -66.76214 | 7113 ft | 273 kts | 81° |
| 2026-04-26 15:32 | 10.64728 | -66.73674 | 7913 ft | 278 kts | 81° |
| 2026-04-26 15:32 | 10.65063 | -66.71741 | 8461 ft | 281 kts | 81° |
| 2026-04-26 15:33 | 10.65404 | -66.69772 | 9022 ft | 284 kts | 81° |
| 2026-04-26 15:33 | 10.65747 | -66.67783 | 9552 ft | 288 kts | 81° |
| 2026-04-26 15:33 | 10.66095 | -66.65768 | 10100 ft | 290 kts | 81° |
| 2026-04-26 15:33 | 10.66452 | -66.63693 | 10294 ft | 307 kts | 81° |
| 2026-04-26 15:34 | 10.66830 | -66.61496 | 10433 ft | 324 kts | 81° |
| 2026-04-26 15:34 | 10.67230 | -66.59184 | 10615 ft | 337 kts | 81° |
| 2026-04-26 15:34 | 10.67636 | -66.56846 | 10940 ft | 343 kts | 81° |
| 2026-04-26 15:34 | 10.68050 | -66.54455 | 11002 ft | 343 kts | 81° |
| 2026-04-26 15:35 | 10.68465 | -66.52062 | 11006 ft | 343 kts | 81° |
| 2026-04-26 15:35 | 10.69004 | -66.49701 | 11005 ft | 344 kts | 72° |
| 2026-04-26 15:35 | 10.69985 | -66.47463 | 11369 ft | 348 kts | 64° |
| 2026-04-26 15:35 | 10.71056 | -66.45246 | 11938 ft | 350 kts | 65° |
| 2026-04-26 15:36 | 10.72115 | -66.43011 | 12474 ft | 352 kts | 65° |
| 2026-04-26 15:36 | 10.73173 | -66.40754 | 12986 ft | 355 kts | 65° |
| 2026-04-26 15:36 | 10.74239 | -66.38475 | 13483 ft | 358 kts | 65° |
| 2026-04-26 15:36 | 10.75317 | -66.36176 | 13967 ft | 361 kts | 65° |
| 2026-04-26 15:37 | 10.76405 | -66.33862 | 14439 ft | 364 kts | 65° |
| 2026-04-26 15:37 | 10.77506 | -66.31532 | 14908 ft | 366 kts | 65° |
| 2026-04-26 15:37 | 10.78617 | -66.29184 | 15361 ft | 369 kts | 65° |
| 2026-04-26 15:37 | 10.79736 | -66.26820 | 15794 ft | 372 kts | 65° |
| 2026-04-26 15:38 | 10.80855 | -66.24475 | 15974 ft | 374 kts | 63° |
| 2026-04-26 15:38 | 10.82282 | -66.22259 | 15998 ft | 375 kts | 51° |
| 2026-04-26 15:38 | 10.84132 | -66.20375 | 16243 ft | 379 kts | 40° |
| 2026-04-26 15:38 | 10.86253 | -66.18770 | 16676 ft | 381 kts | 37° |
| 2026-04-26 15:39 | 10.88401 | -66.17167 | 17079 ft | 383 kts | 37° |
| 2026-04-26 15:39 | 10.90557 | -66.15548 | 17465 ft | 386 kts | 37° |
| 2026-04-26 15:39 | 10.92724 | -66.13921 | 17843 ft | 389 kts | 37° |
| 2026-04-26 15:39 | 10.94171 | -66.12834 | 18087 ft | 391 kts | 37° |
| 2026-04-26 15:40 | 10.97110 | -66.10633 | 18559 ft | 394 kts | 37° |
| 2026-04-26 15:40 | 10.99327 | -66.08980 | 18901 ft | 395 kts | 37° |
| 2026-04-26 15:40 | 11.01552 | -66.07319 | 19222 ft | 398 kts | 37° |
| 2026-04-26 15:40 | 11.03792 | -66.05648 | 19528 ft | 400 kts | 37° |
| 2026-04-26 15:41 | 11.06046 | -66.03967 | 19821 ft | 403 kts | 37° |
| 2026-04-26 15:41 | 11.08316 | -66.02269 | 20094 ft | 405 kts | 37° |
| 2026-04-26 15:41 | 11.10562 | -66.00585 | 20371 ft | 407 kts | 37° |
| 2026-04-26 15:41 | 11.12857 | -65.98865 | 20644 ft | 409 kts | 37° |
| 2026-04-26 15:42 | 11.15152 | -65.97144 | 20908 ft | 411 kts | 37° |
| 2026-04-26 15:42 | 11.17457 | -65.95416 | 21163 ft | 412 kts | 37° |
| 2026-04-26 15:42 | 11.19774 | -65.93682 | 21407 ft | 414 kts | 37° |
| 2026-04-26 15:42 | 11.22102 | -65.91940 | 21649 ft | 416 kts | 37° |
| 2026-04-26 15:43 | 11.24439 | -65.90186 | 21886 ft | 418 kts | 37° |
| 2026-04-26 15:43 | 11.26783 | -65.88427 | 22124 ft | 420 kts | 37° |
| 2026-04-26 15:43 | 11.31503 | -65.84887 | 22569 ft | 423 kts | 37° |
| 2026-04-26 15:44 | 11.33873 | -65.83108 | 22802 ft | 424 kts | 37° |
| 2026-04-26 15:44 | 11.38649 | -65.79527 | 23244 ft | 428 kts | 37° |
| 2026-04-26 15:44 | 11.41057 | -65.77721 | 23473 ft | 430 kts | 37° |
| 2026-04-26 15:45 | 11.45888 | -65.74166 | 23927 ft | 433 kts | 35° |
| 2026-04-26 15:45 | 11.48399 | -65.72454 | 24145 ft | 435 kts | 34° |
| 2026-04-26 15:46 | 11.53508 | -65.69111 | 24577 ft | 438 kts | 33° |
| 2026-04-26 15:46 | 11.56086 | -65.67434 | 24795 ft | 440 kts | 33° |
| 2026-04-26 15:46 | 11.58658 | -65.65740 | 25001 ft | 442 kts | 34° |
| 2026-04-26 15:46 | 11.60402 | -65.64582 | 25153 ft | 443 kts | 34° |
| 2026-04-26 15:47 | 11.63818 | -65.62293 | 25438 ft | 445 kts | 34° |
| 2026-04-26 15:47 | 11.69004 | -65.58794 | 25858 ft | 448 kts | 34° |
| 2026-04-26 15:47 | 11.71609 | -65.57036 | 26070 ft | 450 kts | 34° |
| 2026-04-26 15:48 | 11.74231 | -65.55272 | 26278 ft | 452 kts | 34° |
| 2026-04-26 15:48 | 11.76859 | -65.53506 | 26490 ft | 454 kts | 33° |
| 2026-04-26 15:48 | 11.79501 | -65.51736 | 26698 ft | 455 kts | 33° |
| 2026-04-26 15:48 | 11.82156 | -65.49960 | 26886 ft | 457 kts | 33° |
| 2026-04-26 15:49 | 11.84820 | -65.48180 | 27048 ft | 459 kts | 33° |
| 2026-04-26 15:49 | 11.87488 | -65.46390 | 27241 ft | 460 kts | 33° |
| 2026-04-26 15:49 | 11.90167 | -65.44588 | 27426 ft | 461 kts | 33° |
| 2026-04-26 15:49 | 11.92853 | -65.42779 | 27612 ft | 463 kts | 33° |
| 2026-04-26 15:50 | 11.95547 | -65.40962 | 27801 ft | 465 kts | 33° |
| 2026-04-26 15:50 | 11.98249 | -65.39144 | 27993 ft | 466 kts | 33° |
| 2026-04-26 15:50 | 12.00963 | -65.37320 | 28159 ft | 468 kts | 33° |
| 2026-04-26 15:50 | 12.03655 | -65.35510 | 28311 ft | 470 kts | 33° |
| 2026-04-26 15:51 | 12.06427 | -65.33646 | 28473 ft | 472 kts | 33° |
| 2026-04-26 15:51 | 12.09135 | -65.31825 | 28646 ft | 473 kts | 33° |
| 2026-04-26 15:51 | 12.11895 | -65.29969 | 28813 ft | 475 kts | 33° |
| 2026-04-26 15:51 | 12.14654 | -65.28109 | 28991 ft | 476 kts | 33° |
| 2026-04-26 15:52 | 12.17429 | -65.26236 | 29149 ft | 478 kts | 33° |
| 2026-04-26 15:52 | 12.20217 | -65.24355 | 29317 ft | 479 kts | 33° |
| 2026-04-26 15:52 | 12.23006 | -65.22473 | 29484 ft | 480 kts | 33° |
| 2026-04-26 15:53 | 12.28566 | -65.18721 | 29766 ft | 483 kts | 33° |
| 2026-04-26 15:53 | 12.31379 | -65.16826 | 29905 ft | 484 kts | 32° |
| 2026-04-26 15:53 | 12.34199 | -65.14928 | 30042 ft | 485 kts | 33° |
| 2026-04-26 15:53 | 12.37023 | -65.13025 | 30194 ft | 486 kts | 33° |
| 2026-04-26 15:54 | 12.39846 | -65.11118 | 30337 ft | 487 kts | 33° |
| 2026-04-26 15:54 | 12.42676 | -65.09204 | 30470 ft | 488 kts | 33° |
| 2026-04-26 15:54 | 12.45509 | -65.07288 | 30588 ft | 488 kts | 33° |
| 2026-04-26 15:54 | 12.48349 | -65.05368 | 30723 ft | 489 kts | 33° |
| 2026-04-26 15:55 | 12.51187 | -65.03450 | 30898 ft | 489 kts | 33° |
| 2026-04-26 15:55 | 12.54025 | -65.01531 | 31054 ft | 489 kts | 33° |
| 2026-04-26 15:55 | 12.56860 | -64.99616 | 31227 ft | 489 kts | 33° |
| 2026-04-26 15:55 | 12.59698 | -64.97700 | 31404 ft | 488 kts | 33° |
| 2026-04-26 15:56 | 12.62533 | -64.95787 | 31584 ft | 488 kts | 33° |
| 2026-04-26 15:56 | 12.65365 | -64.93873 | 31749 ft | 487 kts | 33° |
| 2026-04-26 15:56 | 12.68196 | -64.91959 | 31914 ft | 487 kts | 33° |
| 2026-04-26 15:56 | 12.70987 | -64.90070 | 32072 ft | 488 kts | 33° |
| 2026-04-26 15:57 | 12.73815 | -64.88151 | 32236 ft | 487 kts | 33° |
| 2026-04-26 15:57 | 12.76640 | -64.86233 | 32410 ft | 487 kts | 33° |
| 2026-04-26 15:57 | 12.79469 | -64.84309 | 32564 ft | 487 kts | 33° |
| 2026-04-26 15:57 | 12.81374 | -64.83014 | 32674 ft | 487 kts | 33° |
| 2026-04-26 15:58 | 12.85117 | -64.80476 | 32882 ft | 487 kts | 33° |
| 2026-04-26 15:58 | 12.87940 | -64.78565 | 33034 ft | 487 kts | 33° |
| 2026-04-26 15:58 | 12.90772 | -64.76646 | 33211 ft | 487 kts | 33° |
| 2026-04-26 15:58 | 12.93599 | -64.74727 | 33380 ft | 486 kts | 33° |
| 2026-04-26 15:59 | 12.96422 | -64.72811 | 33553 ft | 486 kts | 33° |
| 2026-04-26 15:59 | 12.99240 | -64.70895 | 33723 ft | 486 kts | 33° |
| 2026-04-26 15:59 | 13.02056 | -64.68977 | 33885 ft | 486 kts | 33° |
| 2026-04-26 15:59 | 13.04872 | -64.67062 | 34048 ft | 486 kts | 33° |
| 2026-04-26 16:00 | 13.07632 | -64.65150 | 34209 ft | 485 kts | 37° |
| 2026-04-26 16:00 | 13.10199 | -64.62904 | 34365 ft | 485 kts | 44° |
| 2026-04-26 16:00 | 13.12653 | -64.60528 | 34522 ft | 484 kts | 44° |
| 2026-04-26 16:00 | 13.15105 | -64.58156 | 34667 ft | 484 kts | 43° |
| 2026-04-26 16:01 | 13.17556 | -64.55785 | 34803 ft | 485 kts | 43° |
| 2026-04-26 16:01 | 13.20007 | -64.53412 | 34971 ft | 484 kts | 44° |
| 2026-04-26 16:01 | 13.22453 | -64.51040 | 35103 ft | 484 kts | 44° |
| 2026-04-26 16:02 | 13.27304 | -64.46329 | 35124 ft | 478 kts | 43° |
| 2026-04-26 16:02 | 13.32135 | -64.41649 | 35129 ft | 477 kts | 43° |
| 2026-04-26 16:03 | 13.36957 | -64.36973 | 35126 ft | 477 kts | 43° |
| 2026-04-26 16:03 | 13.41788 | -64.32350 | 35126 ft | 478 kts | 42° |
| 2026-04-26 16:04 | 13.46726 | -64.27772 | 35130 ft | 478 kts | 42° |
| 2026-04-26 16:04 | 13.51677 | -64.23200 | 35128 ft | 478 kts | 42° |
| 2026-04-26 16:05 | 13.56599 | -64.18605 | 35132 ft | 478 kts | 42° |
| 2026-04-26 16:05 | 13.61510 | -64.13991 | 35134 ft | 478 kts | 42° |
| 2026-04-26 16:06 | 13.66399 | -64.09355 | 35126 ft | 478 kts | 43° |
| 2026-04-26 16:06 | 13.71244 | -64.04652 | 35135 ft | 479 kts | 43° |
| 2026-04-26 16:07 | 13.76089 | -63.99944 | 35131 ft | 479 kts | 43° |
| 2026-04-26 16:07 | 13.80946 | -63.95249 | 35134 ft | 479 kts | 43° |
| 2026-04-26 16:08 | 13.85814 | -63.90557 | 35138 ft | 480 kts | 43° |
| 2026-04-26 16:08 | 13.90649 | -63.85885 | 35138 ft | 480 kts | 43° |
| 2026-04-26 16:09 | 13.95513 | -63.81167 | 35145 ft | 480 kts | 43° |
| 2026-04-26 16:09 | 14.00374 | -63.76451 | 35138 ft | 480 kts | 43° |
| 2026-04-26 16:10 | 14.05238 | -63.71746 | 35138 ft | 480 kts | 43° |
| 2026-04-26 16:10 | 14.10109 | -63.67038 | 35146 ft | 480 kts | 43° |
| 2026-04-26 16:11 | 14.14962 | -63.62313 | 35147 ft | 480 kts | 43° |
| 2026-04-26 16:11 | 14.19790 | -63.57624 | 35146 ft | 480 kts | 43° |
| 2026-04-26 16:12 | 14.24689 | -63.52879 | 35142 ft | 480 kts | 43° |
| 2026-04-26 16:12 | 14.31943 | -63.45826 | 35133 ft | 480 kts | 43° |
| 2026-04-26 16:13 | 14.36793 | -63.41102 | 35136 ft | 480 kts | 43° |
| 2026-04-26 16:13 | 14.41653 | -63.36371 | 35131 ft | 480 kts | 43° |
| 2026-04-26 16:14 | 14.46516 | -63.31649 | 35134 ft | 480 kts | 43° |
| 2026-04-26 16:15 | 14.53804 | -63.24539 | 35127 ft | 480 kts | 43° |
| 2026-04-26 16:15 | 14.58659 | -63.19798 | 35125 ft | 481 kts | 43° |
| 2026-04-26 16:16 | 14.65916 | -63.12709 | 35130 ft | 481 kts | 43° |
| 2026-04-26 16:16 | 14.70776 | -63.07965 | 35127 ft | 481 kts | 43° |
| 2026-04-26 16:17 | 14.75637 | -63.03210 | 35128 ft | 481 kts | 43° |
| 2026-04-26 16:17 | 14.80494 | -62.98453 | 35132 ft | 481 kts | 43° |
| 2026-04-26 16:18 | 14.87767 | -62.91328 | 35100 ft | 481 kts | 43° |
| 2026-04-26 16:19 | 14.92624 | -62.86565 | 34595 ft | 480 kts | 43° |
| 2026-04-26 16:19 | 14.95046 | -62.84190 | 34316 ft | 480 kts | 43° |
| 2026-04-26 16:19 | 14.99050 | -62.80258 | 33280 ft | 476 kts | 43° |
| 2026-04-26 16:20 | 15.02226 | -62.77141 | 32491 ft | 473 kts | 43° |
| 2026-04-26 16:20 | 15.06977 | -62.72475 | 31294 ft | 468 kts | 43° |
| 2026-04-26 16:20 | 15.09334 | -62.70163 | 30722 ft | 465 kts | 43° |
| 2026-04-26 16:21 | 15.11679 | -62.67864 | 30143 ft | 462 kts | 43° |
| 2026-04-26 16:21 | 15.14005 | -62.65581 | 29561 ft | 459 kts | 43° |
| 2026-04-26 16:21 | 15.16311 | -62.63315 | 29010 ft | 455 kts | 43° |
| 2026-04-26 16:21 | 15.18597 | -62.61059 | 28450 ft | 452 kts | 43° |
| 2026-04-26 16:22 | 15.20858 | -62.58825 | 27902 ft | 448 kts | 43° |
| 2026-04-26 16:22 | 15.23105 | -62.56609 | 27357 ft | 444 kts | 43° |
| 2026-04-26 16:22 | 15.25338 | -62.54414 | 26838 ft | 439 kts | 43° |
| 2026-04-26 16:22 | 15.26801 | -62.52977 | 26500 ft | 436 kts | 43° |
| 2026-04-26 16:23 | 15.29696 | -62.50134 | 25843 ft | 428 kts | 43° |
| 2026-04-26 16:23 | 15.31874 | -62.48068 | 25342 ft | 422 kts | 38° |
| 2026-04-26 16:23 | 15.33468 | -62.46865 | 25043 ft | 418 kts | 32° |
| 2026-04-26 16:23 | 15.35979 | -62.45389 | 24603 ft | 411 kts | 28° |
| 2026-04-26 16:24 | 15.38442 | -62.44000 | 24189 ft | 405 kts | 28° |
| 2026-04-26 16:24 | 15.40938 | -62.42592 | 23740 ft | 400 kts | 28° |
| 2026-04-26 16:24 | 15.43337 | -62.41237 | 23310 ft | 396 kts | 28° |
| 2026-04-26 16:24 | 15.45743 | -62.39877 | 22872 ft | 391 kts | 28° |
| 2026-04-26 16:25 | 15.48125 | -62.38529 | 22439 ft | 387 kts | 28° |
| 2026-04-26 16:25 | 15.50480 | -62.37196 | 22005 ft | 383 kts | 28° |
| 2026-04-26 16:25 | 15.52804 | -62.35877 | 21575 ft | 379 kts | 28° |
| 2026-04-26 16:25 | 15.55108 | -62.34569 | 21142 ft | 375 kts | 28° |
| 2026-04-26 16:26 | 15.57390 | -62.33276 | 20700 ft | 372 kts | 28° |
| 2026-04-26 16:26 | 15.59651 | -62.31998 | 20261 ft | 369 kts | 27° |
| 2026-04-26 16:26 | 15.61903 | -62.30730 | 19828 ft | 366 kts | 27° |
| 2026-04-26 16:26 | 15.64130 | -62.29473 | 19403 ft | 363 kts | 27° |
| 2026-04-26 16:27 | 15.66339 | -62.28224 | 18987 ft | 359 kts | 27° |
| 2026-04-26 16:27 | 15.68523 | -62.26987 | 18566 ft | 356 kts | 27° |
| 2026-04-26 16:27 | 15.70690 | -62.25759 | 18154 ft | 353 kts | 27° |
| 2026-04-26 16:27 | 15.72836 | -62.24540 | 17745 ft | 350 kts | 27° |
| 2026-04-26 16:28 | 15.74963 | -62.23333 | 17339 ft | 347 kts | 27° |
| 2026-04-26 16:28 | 15.77045 | -62.22150 | 16945 ft | 344 kts | 27° |
| 2026-04-26 16:28 | 15.79134 | -62.20962 | 16549 ft | 341 kts | 27° |
| 2026-04-26 16:28 | 15.81207 | -62.19785 | 16154 ft | 338 kts | 27° |
| 2026-04-26 16:29 | 15.83267 | -62.18618 | 15772 ft | 336 kts | 28° |
| 2026-04-26 16:29 | 15.85311 | -62.17463 | 15395 ft | 333 kts | 28° |
| 2026-04-26 16:29 | 15.87338 | -62.16315 | 15013 ft | 330 kts | 28° |
| 2026-04-26 16:29 | 15.89225 | -62.15242 | 14651 ft | 328 kts | 28° |
| 2026-04-26 16:30 | 15.90803 | -62.14345 | 14349 ft | 326 kts | 28° |
| 2026-04-26 16:30 | 15.92783 | -62.13220 | 13967 ft | 323 kts | 28° |
| 2026-04-26 16:30 | 15.94750 | -62.12102 | 13589 ft | 321 kts | 28° |
| 2026-04-26 16:30 | 15.96698 | -62.10996 | 13215 ft | 318 kts | 28° |
| 2026-04-26 16:31 | 15.98631 | -62.09899 | 12818 ft | 315 kts | 28° |
| 2026-04-26 16:31 | 16.00551 | -62.08808 | 12436 ft | 313 kts | 28° |
| 2026-04-26 16:31 | 16.02452 | -62.07728 | 12050 ft | 310 kts | 28° |
| 2026-04-26 16:31 | 16.04316 | -62.06670 | 11668 ft | 307 kts | 29° |
| 2026-04-26 16:32 | 16.06188 | -62.05605 | 11287 ft | 305 kts | 29° |
| 2026-04-26 16:32 | 16.07445 | -62.04889 | 11026 ft | 304 kts | 29° |
| 2026-04-26 16:32 | 16.09892 | -62.03491 | 10519 ft | 302 kts | 30° |
| 2026-04-26 16:32 | 16.11729 | -62.02447 | 10277 ft | 299 kts | 29° |
| 2026-04-26 16:33 | 16.13561 | -62.01403 | 10181 ft | 301 kts | 30° |
| 2026-04-26 16:33 | 16.15395 | -62.00356 | 10053 ft | 300 kts | 30° |
| 2026-04-26 16:33 | 16.17246 | -61.99299 | 9553 ft | 305 kts | 30° |
| 2026-04-26 16:33 | 16.19092 | -61.98247 | 9075 ft | 303 kts | 30° |
| 2026-04-26 16:34 | 16.20923 | -61.97206 | 8536 ft | 298 kts | 30° |
| 2026-04-26 16:34 | 16.22736 | -61.96174 | 7974 ft | 294 kts | 30° |
| 2026-04-26 16:34 | 16.24451 | -61.95199 | 7486 ft | 290 kts | 30° |
| 2026-04-26 16:34 | 16.25921 | -61.94343 | 7079 ft | 289 kts | 36° |
| 2026-04-26 16:35 | 16.27395 | -61.92980 | 6603 ft | 282 kts | 54° |
| 2026-04-26 16:35 | 16.28391 | -61.91255 | 6122 ft | 275 kts | 71° |
| 2026-04-26 16:35 | 16.28865 | -61.89347 | 5655 ft | 270 kts | 83° |
| 2026-04-26 16:35 | 16.29191 | -61.87423 | 5197 ft | 268 kts | 82° |
| 2026-04-26 16:36 | 16.29521 | -61.85551 | 4966 ft | 254 kts | 82° |
| 2026-04-26 16:36 | 16.29834 | -61.83810 | 4894 ft | 237 kts | 83° |
| 2026-04-26 16:36 | 16.30130 | -61.82150 | 4841 ft | 226 kts | 83° |
| 2026-04-26 16:36 | 16.30409 | -61.80583 | 4723 ft | 215 kts | 83° |
| 2026-04-26 16:37 | 16.30670 | -61.79108 | 4630 ft | 198 kts | 83° |
| 2026-04-26 16:37 | 16.30896 | -61.77765 | 4538 ft | 178 kts | 89° |
| 2026-04-26 16:37 | 16.30859 | -61.76578 | 4419 ft | 157 kts | 104° |
| 2026-04-26 16:37 | 16.30652 | -61.75477 | 4212 ft | 154 kts | 104° |
| 2026-04-26 16:38 | 16.30446 | -61.74391 | 4003 ft | 152 kts | 103° |
| 2026-04-26 16:38 | 16.30246 | -61.73313 | 3811 ft | 151 kts | 103° |
| 2026-04-26 16:38 | 16.30046 | -61.72235 | 3610 ft | 151 kts | 104° |
| 2026-04-26 16:38 | 16.29849 | -61.71163 | 3399 ft | 150 kts | 104° |
| 2026-04-26 16:39 | 16.29653 | -61.70097 | 3189 ft | 149 kts | 104° |
| 2026-04-26 16:39 | 16.29457 | -61.69036 | 2979 ft | 149 kts | 104° |
| 2026-04-26 16:39 | 16.29261 | -61.67977 | 2766 ft | 149 kts | 104° |
| 2026-04-26 16:39 | 16.29067 | -61.66919 | 2553 ft | 148 kts | 103° |
| 2026-04-26 16:40 | 16.28874 | -61.65873 | 2344 ft | 148 kts | 103° |
| 2026-04-26 16:40 | 16.28680 | -61.64822 | 2134 ft | 148 kts | 103° |
| 2026-04-26 16:40 | 16.28486 | -61.63775 | 1925 ft | 147 kts | 102° |
| 2026-04-26 16:40 | 16.28295 | -61.62727 | 1721 ft | 147 kts | 102° |
| 2026-04-26 16:41 | 16.28099 | -61.61679 | 1512 ft | 148 kts | 102° |
| 2026-04-26 16:41 | 16.27905 | -61.60623 | 1302 ft | 149 kts | 102° |
| 2026-04-26 16:41 | 16.27708 | -61.59556 | 1090 ft | 150 kts | 101° |
| 2026-04-26 16:41 | 16.27512 | -61.58486 | 871 ft | 150 kts | 102° |
| 2026-04-26 16:42 | 16.27316 | -61.57425 | 663 ft | 150 kts | 101° |
| 2026-04-26 16:42 | 16.27120 | -61.56362 | 453 ft | 150 kts | 102° |
| 2026-04-26 16:42 | 16.26923 | -61.55300 | 236 ft | 149 kts | 102° |
| 2026-04-26 16:42 | 16.26726 | -61.54242 | 34 ft | 148 kts | 102° |
| 2026-04-26 16:43 | 16.26548 | -61.53293 | 28 ft | 102 kts | 101° |
| 2026-04-26 16:43 | 16.26472 | -61.52856 | 26 ft | 44 kts | 103° |
| 2026-04-26 16:43 | 16.26409 | -61.52528 | 30 ft | 48 kts | 101° |
| 2026-04-26 16:43 | 16.26385 | -61.52242 | 33 ft | 23 kts | 65° |
| 2026-04-26 16:44 | 16.26432 | -61.52210 | 34 ft | 7 kts | 354° |
| 2026-04-26 16:44 | 16.26482 | -61.52215 | 33 ft | 0 kts | 5° |
| 2026-04-26 16:45 | 16.26498 | -61.52213 | 33 ft | 7 kts | 6° |
| 2026-04-26 16:45 | 16.26542 | -61.52206 | 31 ft | 6 kts | 10° |
| 2026-04-26 16:45 | 16.26595 | -61.52196 | 29 ft | 14 kts | 11° |
| 2026-04-26 16:45 | 16.26697 | -61.52187 | 25 ft | 13 kts | 334° |
| 2026-04-26 16:46 | 16.26736 | -61.52256 | 23 ft | 11 kts | 286° |
| 2026-04-26 16:46 | 16.26756 | -61.52347 | 23 ft | 12 kts | 279° |
| 2026-04-26 16:46 | 16.26774 | -61.52430 | 20 ft | 10 kts | 282° |
| 2026-04-26 16:46 | 16.26782 | -61.52481 | 20 ft | 8 kts | 278° |
| 2026-04-26 16:47 | 16.26793 | -61.52556 | 21 ft | 12 kts | 278° |
| 2026-04-26 16:47 | 16.26805 | -61.52635 | 20 ft | 11 kts | 279° |
| 2026-04-26 16:47 | 16.26817 | -61.52705 | 20 ft | 8 kts | 283° |
| 2026-04-26 16:47 | 16.26825 | -61.52742 | 20 ft | 2 kts | 281° |
| 2026-04-26 16:48 | 16.26842 | -61.52763 | 21 ft | 8 kts | 329° |
| 2026-04-26 16:48 | 16.26852 | -61.52764 | 21 ft | 0 kts | 1° |
| 2026-04-26 16:48 | 16.26881 | -61.52751 | 21 ft | 3 kts | 32° |
| 2026-04-26 16:49 | 16.26909 | -61.52727 | 24 ft | 3 kts | 24° |
| 2026-04-26 16:49 | 16.26910 | -61.52727 | 22 ft | 0 kts | 28° |